sensor_id;sensor_type;location;lat;lon;timestamp;P1;durP1;ratioP1;P2;durP2;ratioP2
62572;SDS011;48626;51.678;5.806;2023-11-19T00:02:16;11.40;;;6.07;;
62572;SDS011;48626;51.678;5.806;2023-11-19T00:04:43;9.07;;;6.47;;
62572;SDS011;48626;51.678;5.806;2023-11-19T00:07:09;13.07;;;6.40;;
62572;SDS011;48626;51.678;5.806;2023-11-19T00:09:37;11.18;;;6.10;;
62572;SDS011;48626;51.678;5.806;2023-11-19T00:12:03;10.68;;;6.20;;
62572;SDS011;48626;51.678;5.806;2023-11-19T00:14:30;9.30;;;6.40;;
62572;SDS011;48626;51.678;5.806;2023-11-19T00:16:56;10.95;;;6.97;;
62572;SDS011;48626;51.678;5.806;2023-11-19T00:19:21;8.95;;;6.47;;
62572;SDS011;48626;51.678;5.806;2023-11-19T00:21:47;10.80;;;6.43;;
62572;SDS011;48626;51.678;5.806;2023-11-19T00:24:13;9.50;;;6.38;;
62572;SDS011;48626;51.678;5.806;2023-11-19T00:26:41;11.05;;;6.53;;
62572;SDS011;48626;51.678;5.806;2023-11-19T00:29:07;11.52;;;6.57;;
62572;SDS011;48626;51.678;5.806;2023-11-19T00:31:33;18.98;;;7.03;;
62572;SDS011;48626;51.678;5.806;2023-11-19T00:33:59;13.82;;;6.78;;
62572;SDS011;48626;51.678;5.806;2023-11-19T00:36:24;13.77;;;6.95;;
62572;SDS011;48626;51.678;5.806;2023-11-19T00:38:50;13.95;;;7.80;;
62572;SDS011;48626;51.678;5.806;2023-11-19T00:41:17;18.23;;;7.28;;
62572;SDS011;48626;51.678;5.806;2023-11-19T00:43:44;19.98;;;7.53;;
62572;SDS011;48626;51.678;5.806;2023-11-19T00:46:09;18.38;;;7.32;;
62572;SDS011;48626;51.678;5.806;2023-11-19T00:48:38;20.20;;;7.10;;
62572;SDS011;48626;51.678;5.806;2023-11-19T00:51:04;18.55;;;6.90;;
62572;SDS011;48626;51.678;5.806;2023-11-19T00:53:31;15.15;;;7.00;;
62572;SDS011;48626;51.678;5.806;2023-11-19T00:55:57;10.85;;;6.88;;
62572;SDS011;48626;51.678;5.806;2023-11-19T00:58:23;15.93;;;7.03;;
62572;SDS011;48626;51.678;5.806;2023-11-19T01:00:48;14.05;;;6.68;;
62572;SDS011;48626;51.678;5.806;2023-11-19T01:03:14;17.25;;;6.90;;
62572;SDS011;48626;51.678;5.806;2023-11-19T01:05:41;21.33;;;8.25;;
62572;SDS011;48626;51.678;5.806;2023-11-19T01:08:07;20.75;;;7.22;;
62572;SDS011;48626;51.678;5.806;2023-11-19T01:10:33;15.70;;;6.97;;
62572;SDS011;48626;51.678;5.806;2023-11-19T01:12:59;27.42;;;6.90;;
62572;SDS011;48626;51.678;5.806;2023-11-19T01:15:25;18.80;;;7.07;;
62572;SDS011;48626;51.678;5.806;2023-11-19T01:17:51;15.93;;;6.03;;
62572;SDS011;48626;51.678;5.806;2023-11-19T01:20:17;16.35;;;6.50;;
62572;SDS011;48626;51.678;5.806;2023-11-19T01:22:42;15.55;;;6.20;;
62572;SDS011;48626;51.678;5.806;2023-11-19T01:25:08;24.42;;;6.40;;
62572;SDS011;48626;51.678;5.806;2023-11-19T01:27:34;21.77;;;6.30;;
62572;SDS011;48626;51.678;5.806;2023-11-19T01:30:03;23.20;;;7.30;;
62572;SDS011;48626;51.678;5.806;2023-11-19T01:32:30;22.00;;;6.35;;
62572;SDS011;48626;51.678;5.806;2023-11-19T01:34:56;20.38;;;5.60;;
62572;SDS011;48626;51.678;5.806;2023-11-19T01:37:22;19.95;;;5.70;;
62572;SDS011;48626;51.678;5.806;2023-11-19T01:39:47;19.83;;;5.50;;
62572;SDS011;48626;51.678;5.806;2023-11-19T01:42:13;10.52;;;5.53;;
62572;SDS011;48626;51.678;5.806;2023-11-19T01:44:38;14.73;;;4.80;;
62572;SDS011;48626;51.678;5.806;2023-11-19T01:47:04;21.33;;;4.80;;
62572;SDS011;48626;51.678;5.806;2023-11-19T01:49:31;17.33;;;4.72;;
62572;SDS011;48626;51.678;5.806;2023-11-19T01:51:58;25.25;;;4.88;;
62572;SDS011;48626;51.678;5.806;2023-11-19T01:54:24;15.18;;;4.80;;
62572;SDS011;48626;51.678;5.806;2023-11-19T01:56:50;8.55;;;3.95;;
62572;SDS011;48626;51.678;5.806;2023-11-19T01:59:18;18.60;;;4.70;;
62572;SDS011;48626;51.678;5.806;2023-11-19T02:01:51;19.77;;;4.60;;
62572;SDS011;48626;51.678;5.806;2023-11-19T02:04:19;13.60;;;4.47;;
62572;SDS011;48626;51.678;5.806;2023-11-19T02:06:45;17.20;;;4.30;;
62572;SDS011;48626;51.678;5.806;2023-11-19T02:09:13;21.90;;;4.18;;
62572;SDS011;48626;51.678;5.806;2023-11-19T02:11:40;22.25;;;4.75;;
62572;SDS011;48626;51.678;5.806;2023-11-19T02:14:06;25.83;;;4.68;;
62572;SDS011;48626;51.678;5.806;2023-11-19T02:16:31;20.98;;;4.20;;
62572;SDS011;48626;51.678;5.806;2023-11-19T02:18:57;19.17;;;4.10;;
62572;SDS011;48626;51.678;5.806;2023-11-19T02:21:23;22.52;;;4.82;;
62572;SDS011;48626;51.678;5.806;2023-11-19T02:23:49;18.35;;;3.75;;
62572;SDS011;48626;51.678;5.806;2023-11-19T02:26:33;18.35;;;4.57;;
62572;SDS011;48626;51.678;5.806;2023-11-19T02:29:12;16.52;;;4.20;;
62572;SDS011;48626;51.678;5.806;2023-11-19T02:31:38;22.40;;;4.20;;
62572;SDS011;48626;51.678;5.806;2023-11-19T02:34:04;24.85;;;5.20;;
62572;SDS011;48626;51.678;5.806;2023-11-19T02:36:30;29.60;;;4.68;;
62572;SDS011;48626;51.678;5.806;2023-11-19T02:38:57;33.63;;;4.78;;
62572;SDS011;48626;51.678;5.806;2023-11-19T02:41:23;19.27;;;4.50;;
62572;SDS011;48626;51.678;5.806;2023-11-19T02:43:49;28.27;;;4.40;;
62572;SDS011;48626;51.678;5.806;2023-11-19T02:46:15;22.88;;;4.75;;
62572;SDS011;48626;51.678;5.806;2023-11-19T02:48:42;31.58;;;4.38;;
62572;SDS011;48626;51.678;5.806;2023-11-19T02:51:09;25.73;;;4.50;;
62572;SDS011;48626;51.678;5.806;2023-11-19T02:53:35;17.95;;;4.28;;
62572;SDS011;48626;51.678;5.806;2023-11-19T02:56:02;32.40;;;5.85;;
62572;SDS011;48626;51.678;5.806;2023-11-19T02:58:37;25.40;;;4.95;;
62572;SDS011;48626;51.678;5.806;2023-11-19T03:01:04;24.50;;;5.35;;
62572;SDS011;48626;51.678;5.806;2023-11-19T03:03:37;30.15;;;4.68;;
62572;SDS011;48626;51.678;5.806;2023-11-19T03:06:05;23.73;;;4.47;;
62572;SDS011;48626;51.678;5.806;2023-11-19T03:08:32;31.00;;;5.13;;
62572;SDS011;48626;51.678;5.806;2023-11-19T03:11:00;43.67;;;5.50;;
62572;SDS011;48626;51.678;5.806;2023-11-19T03:13:25;29.25;;;5.53;;
62572;SDS011;48626;51.678;5.806;2023-11-19T03:15:52;33.13;;;5.72;;
62572;SDS011;48626;51.678;5.806;2023-11-19T03:18:20;41.63;;;5.35;;
62572;SDS011;48626;51.678;5.806;2023-11-19T03:20:46;34.28;;;4.60;;
62572;SDS011;48626;51.678;5.806;2023-11-19T03:23:12;35.15;;;5.68;;
62572;SDS011;48626;51.678;5.806;2023-11-19T03:25:38;34.63;;;4.80;;
62572;SDS011;48626;51.678;5.806;2023-11-19T03:28:03;26.17;;;4.60;;
62572;SDS011;48626;51.678;5.806;2023-11-19T03:30:30;36.38;;;4.80;;
62572;SDS011;48626;51.678;5.806;2023-11-19T03:32:58;36.28;;;5.28;;
62572;SDS011;48626;51.678;5.806;2023-11-19T03:35:27;40.88;;;5.53;;
62572;SDS011;48626;51.678;5.806;2023-11-19T03:37:53;33.00;;;5.20;;
62572;SDS011;48626;51.678;5.806;2023-11-19T03:40:19;38.53;;;5.40;;
62572;SDS011;48626;51.678;5.806;2023-11-19T03:42:45;33.92;;;5.00;;
62572;SDS011;48626;51.678;5.806;2023-11-19T03:45:11;27.60;;;4.10;;
62572;SDS011;48626;51.678;5.806;2023-11-19T03:47:37;41.78;;;4.70;;
62572;SDS011;48626;51.678;5.806;2023-11-19T03:50:03;47.92;;;5.20;;
62572;SDS011;48626;51.678;5.806;2023-11-19T03:52:30;32.67;;;4.65;;
62572;SDS011;48626;51.678;5.806;2023-11-19T03:54:55;37.15;;;4.55;;
62572;SDS011;48626;51.678;5.806;2023-11-19T03:57:22;33.45;;;4.90;;
62572;SDS011;48626;51.678;5.806;2023-11-19T03:59:48;30.67;;;4.78;;
62572;SDS011;48626;51.678;5.806;2023-11-19T04:02:14;26.63;;;4.72;;
62572;SDS011;48626;51.678;5.806;2023-11-19T04:04:41;38.10;;;5.72;;
62572;SDS011;48626;51.678;5.806;2023-11-19T04:07:06;39.60;;;4.20;;
62572;SDS011;48626;51.678;5.806;2023-11-19T04:09:32;43.08;;;4.85;;
62572;SDS011;48626;51.678;5.806;2023-11-19T04:11:58;46.65;;;4.72;;
62572;SDS011;48626;51.678;5.806;2023-11-19T04:14:25;39.58;;;4.43;;
62572;SDS011;48626;51.678;5.806;2023-11-19T04:16:51;44.80;;;5.38;;
62572;SDS011;48626;51.678;5.806;2023-11-19T04:19:17;39.75;;;5.03;;
62572;SDS011;48626;51.678;5.806;2023-11-19T04:21:43;45.85;;;5.40;;
62572;SDS011;48626;51.678;5.806;2023-11-19T04:24:09;43.67;;;5.07;;
62572;SDS011;48626;51.678;5.806;2023-11-19T04:26:42;45.05;;;4.70;;
62572;SDS011;48626;51.678;5.806;2023-11-19T04:29:11;34.45;;;4.43;;
62572;SDS011;48626;51.678;5.806;2023-11-19T04:31:40;34.38;;;4.50;;
62572;SDS011;48626;51.678;5.806;2023-11-19T04:34:06;37.42;;;4.70;;
62572;SDS011;48626;51.678;5.806;2023-11-19T04:36:32;29.60;;;4.32;;
62572;SDS011;48626;51.678;5.806;2023-11-19T04:38:59;45.83;;;5.35;;
62572;SDS011;48626;51.678;5.806;2023-11-19T04:41:50;37.58;;;4.95;;
62572;SDS011;48626;51.678;5.806;2023-11-19T04:44:19;33.10;;;5.03;;
62572;SDS011;48626;51.678;5.806;2023-11-19T04:46:45;39.63;;;5.28;;
62572;SDS011;48626;51.678;5.806;2023-11-19T04:49:11;30.13;;;4.38;;
62572;SDS011;48626;51.678;5.806;2023-11-19T04:51:41;33.38;;;4.50;;
62572;SDS011;48626;51.678;5.806;2023-11-19T04:54:09;41.30;;;5.07;;
62572;SDS011;48626;51.678;5.806;2023-11-19T04:56:38;36.60;;;5.20;;
62572;SDS011;48626;51.678;5.806;2023-11-19T04:59:04;44.93;;;5.40;;
62572;SDS011;48626;51.678;5.806;2023-11-19T05:01:33;46.40;;;5.10;;
62572;SDS011;48626;51.678;5.806;2023-11-19T05:03:59;45.80;;;5.25;;
62572;SDS011;48626;51.678;5.806;2023-11-19T05:06:26;43.83;;;5.07;;
62572;SDS011;48626;51.678;5.806;2023-11-19T05:08:56;34.58;;;4.97;;
62572;SDS011;48626;51.678;5.806;2023-11-19T05:11:23;44.33;;;5.15;;
62572;SDS011;48626;51.678;5.806;2023-11-19T05:13:48;43.65;;;4.78;;
62572;SDS011;48626;51.678;5.806;2023-11-19T05:16:15;55.67;;;5.55;;
62572;SDS011;48626;51.678;5.806;2023-11-19T05:18:42;50.42;;;4.93;;
62572;SDS011;48626;51.678;5.806;2023-11-19T05:21:08;38.00;;;4.90;;
62572;SDS011;48626;51.678;5.806;2023-11-19T05:23:33;46.63;;;5.45;;
62572;SDS011;48626;51.678;5.806;2023-11-19T05:26:01;44.50;;;5.22;;
62572;SDS011;48626;51.678;5.806;2023-11-19T05:28:27;46.17;;;5.93;;
62572;SDS011;48626;51.678;5.806;2023-11-19T05:30:52;45.90;;;5.57;;
62572;SDS011;48626;51.678;5.806;2023-11-19T05:33:18;39.92;;;5.60;;
62572;SDS011;48626;51.678;5.806;2023-11-19T05:35:43;48.45;;;6.57;;
62572;SDS011;48626;51.678;5.806;2023-11-19T05:38:09;53.35;;;7.00;;
62572;SDS011;48626;51.678;5.806;2023-11-19T05:40:35;46.03;;;5.22;;
62572;SDS011;48626;51.678;5.806;2023-11-19T05:43:01;46.22;;;5.72;;
62572;SDS011;48626;51.678;5.806;2023-11-19T05:45:27;49.38;;;5.78;;
62572;SDS011;48626;51.678;5.806;2023-11-19T05:47:52;41.83;;;5.50;;
62572;SDS011;48626;51.678;5.806;2023-11-19T05:50:18;42.60;;;5.57;;
62572;SDS011;48626;51.678;5.806;2023-11-19T05:52:44;38.75;;;4.90;;
62572;SDS011;48626;51.678;5.806;2023-11-19T05:55:10;48.25;;;6.13;;
62572;SDS011;48626;51.678;5.806;2023-11-19T05:57:38;57.75;;;5.80;;
62572;SDS011;48626;51.678;5.806;2023-11-19T06:00:07;40.58;;;5.57;;
62572;SDS011;48626;51.678;5.806;2023-11-19T06:02:37;42.33;;;4.68;;
62572;SDS011;48626;51.678;5.806;2023-11-19T06:05:04;37.53;;;5.22;;
62572;SDS011;48626;51.678;5.806;2023-11-19T06:07:31;42.63;;;4.85;;
62572;SDS011;48626;51.678;5.806;2023-11-19T06:10:00;41.85;;;5.10;;
62572;SDS011;48626;51.678;5.806;2023-11-19T06:12:26;43.10;;;5.38;;
62572;SDS011;48626;51.678;5.806;2023-11-19T06:14:52;49.45;;;5.13;;
62572;SDS011;48626;51.678;5.806;2023-11-19T06:17:18;40.25;;;4.93;;
62572;SDS011;48626;51.678;5.806;2023-11-19T06:19:44;44.08;;;5.40;;
62572;SDS011;48626;51.678;5.806;2023-11-19T06:22:10;39.75;;;5.47;;
62572;SDS011;48626;51.678;5.806;2023-11-19T06:24:36;40.92;;;5.25;;
62572;SDS011;48626;51.678;5.806;2023-11-19T06:27:01;38.33;;;4.93;;
62572;SDS011;48626;51.678;5.806;2023-11-19T06:29:28;35.75;;;5.18;;
62572;SDS011;48626;51.678;5.806;2023-11-19T06:31:53;39.20;;;4.85;;
62572;SDS011;48626;51.678;5.806;2023-11-19T06:34:19;44.47;;;5.63;;
62572;SDS011;48626;51.678;5.806;2023-11-19T06:36:44;47.55;;;7.07;;
62572;SDS011;48626;51.678;5.806;2023-11-19T06:39:10;50.58;;;4.75;;
62572;SDS011;48626;51.678;5.806;2023-11-19T06:41:36;42.33;;;5.18;;
62572;SDS011;48626;51.678;5.806;2023-11-19T06:44:04;45.53;;;5.28;;
62572;SDS011;48626;51.678;5.806;2023-11-19T06:46:30;43.00;;;5.30;;
62572;SDS011;48626;51.678;5.806;2023-11-19T06:48:56;48.92;;;5.55;;
62572;SDS011;48626;51.678;5.806;2023-11-19T06:51:22;57.92;;;5.93;;
62572;SDS011;48626;51.678;5.806;2023-11-19T06:53:49;38.80;;;5.43;;
62572;SDS011;48626;51.678;5.806;2023-11-19T06:56:22;43.42;;;5.35;;
62572;SDS011;48626;51.678;5.806;2023-11-19T06:58:48;61.25;;;7.30;;
62572;SDS011;48626;51.678;5.806;2023-11-19T07:01:15;59.65;;;5.15;;
62572;SDS011;48626;51.678;5.806;2023-11-19T07:03:41;46.47;;;5.50;;
62572;SDS011;48626;51.678;5.806;2023-11-19T07:06:07;46.80;;;5.05;;
62572;SDS011;48626;51.678;5.806;2023-11-19T07:08:33;46.42;;;5.47;;
62572;SDS011;48626;51.678;5.806;2023-11-19T07:10:59;48.10;;;5.88;;
62572;SDS011;48626;51.678;5.806;2023-11-19T07:13:25;51.97;;;5.88;;
62572;SDS011;48626;51.678;5.806;2023-11-19T07:15:52;51.03;;;5.78;;
62572;SDS011;48626;51.678;5.806;2023-11-19T07:18:19;44.53;;;4.43;;
62572;SDS011;48626;51.678;5.806;2023-11-19T07:20:46;48.65;;;5.93;;
62572;SDS011;48626;51.678;5.806;2023-11-19T07:23:12;50.72;;;5.60;;
62572;SDS011;48626;51.678;5.806;2023-11-19T07:25:39;38.58;;;5.03;;
62572;SDS011;48626;51.678;5.806;2023-11-19T07:28:05;50.08;;;6.25;;
62572;SDS011;48626;51.678;5.806;2023-11-19T07:30:31;66.18;;;5.63;;
62572;SDS011;48626;51.678;5.806;2023-11-19T07:32:56;44.47;;;4.68;;
62572;SDS011;48626;51.678;5.806;2023-11-19T07:35:23;35.08;;;5.20;;
62572;SDS011;48626;51.678;5.806;2023-11-19T07:37:48;49.40;;;5.90;;
62572;SDS011;48626;51.678;5.806;2023-11-19T07:40:15;38.53;;;4.82;;
62572;SDS011;48626;51.678;5.806;2023-11-19T07:42:41;38.75;;;5.82;;
62572;SDS011;48626;51.678;5.806;2023-11-19T07:45:06;47.22;;;6.00;;
62572;SDS011;48626;51.678;5.806;2023-11-19T07:47:32;50.78;;;5.32;;
62572;SDS011;48626;51.678;5.806;2023-11-19T07:49:58;38.35;;;4.90;;
62572;SDS011;48626;51.678;5.806;2023-11-19T07:52:23;56.95;;;6.80;;
62572;SDS011;48626;51.678;5.806;2023-11-19T07:54:49;39.38;;;4.85;;
62572;SDS011;48626;51.678;5.806;2023-11-19T07:57:14;42.92;;;5.43;;
62572;SDS011;48626;51.678;5.806;2023-11-19T07:59:40;59.33;;;5.72;;
62572;SDS011;48626;51.678;5.806;2023-11-19T08:02:06;41.70;;;6.05;;
62572;SDS011;48626;51.678;5.806;2023-11-19T08:04:31;43.47;;;5.28;;
62572;SDS011;48626;51.678;5.806;2023-11-19T08:06:57;41.38;;;4.95;;
62572;SDS011;48626;51.678;5.806;2023-11-19T08:09:22;49.38;;;6.10;;
62572;SDS011;48626;51.678;5.806;2023-11-19T08:11:48;40.58;;;5.75;;
62572;SDS011;48626;51.678;5.806;2023-11-19T08:14:14;55.85;;;6.35;;
62572;SDS011;48626;51.678;5.806;2023-11-19T08:16:40;45.13;;;5.05;;
62572;SDS011;48626;51.678;5.806;2023-11-19T08:19:06;51.05;;;5.88;;
62572;SDS011;48626;51.678;5.806;2023-11-19T08:21:31;48.78;;;5.57;;
62572;SDS011;48626;51.678;5.806;2023-11-19T08:23:57;43.88;;;5.35;;
62572;SDS011;48626;51.678;5.806;2023-11-19T08:26:23;53.65;;;5.35;;
62572;SDS011;48626;51.678;5.806;2023-11-19T08:28:48;43.75;;;5.20;;
62572;SDS011;48626;51.678;5.806;2023-11-19T08:31:14;54.47;;;6.18;;
62572;SDS011;48626;51.678;5.806;2023-11-19T08:33:40;50.10;;;5.97;;
62572;SDS011;48626;51.678;5.806;2023-11-19T08:36:05;56.20;;;5.82;;
62572;SDS011;48626;51.678;5.806;2023-11-19T08:38:31;53.72;;;5.45;;
62572;SDS011;48626;51.678;5.806;2023-11-19T08:40:57;51.65;;;5.78;;
62572;SDS011;48626;51.678;5.806;2023-11-19T08:43:25;45.97;;;6.20;;
62572;SDS011;48626;51.678;5.806;2023-11-19T08:45:51;59.10;;;5.40;;
62572;SDS011;48626;51.678;5.806;2023-11-19T08:48:16;48.97;;;6.38;;
62572;SDS011;48626;51.678;5.806;2023-11-19T08:50:42;47.90;;;6.15;;
62572;SDS011;48626;51.678;5.806;2023-11-19T08:53:08;68.75;;;7.00;;
62572;SDS011;48626;51.678;5.806;2023-11-19T08:55:33;60.80;;;6.38;;
62572;SDS011;48626;51.678;5.806;2023-11-19T08:57:59;57.13;;;6.28;;
62572;SDS011;48626;51.678;5.806;2023-11-19T09:00:24;50.55;;;6.30;;
62572;SDS011;48626;51.678;5.806;2023-11-19T09:02:50;55.78;;;5.30;;
62572;SDS011;48626;51.678;5.806;2023-11-19T09:05:16;52.38;;;5.95;;
62572;SDS011;48626;51.678;5.806;2023-11-19T09:07:41;48.25;;;4.95;;
62572;SDS011;48626;51.678;5.806;2023-11-19T09:10:07;59.08;;;6.22;;
62572;SDS011;48626;51.678;5.806;2023-11-19T09:12:33;50.03;;;5.43;;
62572;SDS011;48626;51.678;5.806;2023-11-19T09:15:00;66.03;;;6.28;;
62572;SDS011;48626;51.678;5.806;2023-11-19T09:17:25;56.28;;;5.65;;
62572;SDS011;48626;51.678;5.806;2023-11-19T09:19:51;45.88;;;5.55;;
62572;SDS011;48626;51.678;5.806;2023-11-19T09:22:16;60.88;;;6.35;;
62572;SDS011;48626;51.678;5.806;2023-11-19T09:24:42;42.35;;;5.28;;
62572;SDS011;48626;51.678;5.806;2023-11-19T09:27:09;69.82;;;6.38;;
62572;SDS011;48626;51.678;5.806;2023-11-19T09:29:35;46.20;;;5.72;;
62572;SDS011;48626;51.678;5.806;2023-11-19T09:32:01;49.72;;;6.93;;
62572;SDS011;48626;51.678;5.806;2023-11-19T09:34:27;47.58;;;6.32;;
62572;SDS011;48626;51.678;5.806;2023-11-19T09:36:53;46.13;;;5.93;;
62572;SDS011;48626;51.678;5.806;2023-11-19T09:39:18;53.38;;;6.75;;
62572;SDS011;48626;51.678;5.806;2023-11-19T09:41:45;45.60;;;5.45;;
62572;SDS011;48626;51.678;5.806;2023-11-19T09:44:11;58.03;;;5.88;;
62572;SDS011;48626;51.678;5.806;2023-11-19T09:46:38;38.13;;;5.10;;
62572;SDS011;48626;51.678;5.806;2023-11-19T09:49:06;47.15;;;5.50;;
62572;SDS011;48626;51.678;5.806;2023-11-19T09:51:34;52.72;;;6.13;;
62572;SDS011;48626;51.678;5.806;2023-11-19T09:54:00;51.22;;;5.90;;
62572;SDS011;48626;51.678;5.806;2023-11-19T09:56:26;58.25;;;6.20;;
62572;SDS011;48626;51.678;5.806;2023-11-19T09:58:54;54.30;;;5.35;;
62572;SDS011;48626;51.678;5.806;2023-11-19T10:01:20;50.03;;;5.13;;
62572;SDS011;48626;51.678;5.806;2023-11-19T10:03:46;56.58;;;6.95;;
62572;SDS011;48626;51.678;5.806;2023-11-19T10:06:12;45.22;;;5.60;;
62572;SDS011;48626;51.678;5.806;2023-11-19T10:08:41;45.83;;;6.28;;
62572;SDS011;48626;51.678;5.806;2023-11-19T10:11:07;56.85;;;5.63;;
62572;SDS011;48626;51.678;5.806;2023-11-19T10:13:35;74.22;;;7.05;;
62572;SDS011;48626;51.678;5.806;2023-11-19T10:16:04;52.83;;;5.95;;
62572;SDS011;48626;51.678;5.806;2023-11-19T10:18:33;42.25;;;6.90;;
62572;SDS011;48626;51.678;5.806;2023-11-19T10:21:03;56.72;;;7.47;;
62572;SDS011;48626;51.678;5.806;2023-11-19T10:23:30;53.72;;;6.47;;
62572;SDS011;48626;51.678;5.806;2023-11-19T10:26:01;47.15;;;5.93;;
62572;SDS011;48626;51.678;5.806;2023-11-19T10:28:37;50.83;;;5.35;;
62572;SDS011;48626;51.678;5.806;2023-11-19T10:31:05;51.03;;;5.75;;
62572;SDS011;48626;51.678;5.806;2023-11-19T10:33:30;43.50;;;6.15;;
62572;SDS011;48626;51.678;5.806;2023-11-19T10:35:57;51.95;;;5.72;;
62572;SDS011;48626;51.678;5.806;2023-11-19T10:38:23;51.05;;;5.55;;
62572;SDS011;48626;51.678;5.806;2023-11-19T10:40:50;47.22;;;6.60;;
62572;SDS011;48626;51.678;5.806;2023-11-19T10:43:19;56.65;;;5.88;;
62572;SDS011;48626;51.678;5.806;2023-11-19T10:45:47;53.83;;;6.10;;
62572;SDS011;48626;51.678;5.806;2023-11-19T10:48:13;52.35;;;5.80;;
62572;SDS011;48626;51.678;5.806;2023-11-19T10:50:39;51.35;;;5.75;;
62572;SDS011;48626;51.678;5.806;2023-11-19T10:53:06;46.40;;;5.90;;
62572;SDS011;48626;51.678;5.806;2023-11-19T10:55:34;44.28;;;5.25;;
62572;SDS011;48626;51.678;5.806;2023-11-19T10:58:03;51.75;;;6.22;;
62572;SDS011;48626;51.678;5.806;2023-11-19T11:00:47;49.25;;;5.88;;
62572;SDS011;48626;51.678;5.806;2023-11-19T11:03:18;60.58;;;5.97;;
62572;SDS011;48626;51.678;5.806;2023-11-19T11:05:49;55.60;;;6.75;;
62572;SDS011;48626;51.678;5.806;2023-11-19T11:08:16;53.00;;;5.80;;
62572;SDS011;48626;51.678;5.806;2023-11-19T11:10:43;48.33;;;5.63;;
62572;SDS011;48626;51.678;5.806;2023-11-19T11:13:19;40.03;;;5.72;;
62572;SDS011;48626;51.678;5.806;2023-11-19T11:15:48;43.05;;;6.45;;
62572;SDS011;48626;51.678;5.806;2023-11-19T11:18:14;49.90;;;6.70;;
62572;SDS011;48626;51.678;5.806;2023-11-19T11:20:40;53.95;;;6.25;;
62572;SDS011;48626;51.678;5.806;2023-11-19T11:28:14;40.33;;;5.75;;
62572;SDS011;48626;51.678;5.806;2023-11-19T11:36:22;66.72;;;6.53;;
62572;SDS011;48626;51.678;5.806;2023-11-19T11:38:48;44.97;;;5.73;;
62572;SDS011;48626;51.678;5.806;2023-11-19T11:41:15;47.45;;;5.90;;
62572;SDS011;48626;51.678;5.806;2023-11-19T11:43:49;38.75;;;5.70;;
62572;SDS011;48626;51.678;5.806;2023-11-19T11:49:02;41.75;;;5.40;;
62572;SDS011;48626;51.678;5.806;2023-11-19T11:54:10;36.35;;;5.25;;
62572;SDS011;48626;51.678;5.806;2023-11-19T11:57:07;37.35;;;4.90;;
62572;SDS011;48626;51.678;5.806;2023-11-19T12:02:11;46.50;;;6.28;;
62572;SDS011;48626;51.678;5.806;2023-11-19T12:04:39;39.88;;;5.20;;
62572;SDS011;48626;51.678;5.806;2023-11-19T12:07:05;40.53;;;5.75;;
62572;SDS011;48626;51.678;5.806;2023-11-19T12:09:33;40.10;;;6.03;;
62572;SDS011;48626;51.678;5.806;2023-11-19T12:20:07;28.77;;;5.07;;
62572;SDS011;48626;51.678;5.806;2023-11-19T12:22:37;32.83;;;4.65;;
62572;SDS011;48626;51.678;5.806;2023-11-19T12:27:30;69.68;;;6.15;;
62572;SDS011;48626;51.678;5.806;2023-11-19T12:29:56;25.13;;;4.28;;
62572;SDS011;48626;51.678;5.806;2023-11-19T12:32:22;39.90;;;4.68;;
62572;SDS011;48626;51.678;5.806;2023-11-19T12:34:47;40.35;;;5.20;;
62572;SDS011;48626;51.678;5.806;2023-11-19T12:37:13;35.70;;;4.47;;
62572;SDS011;48626;51.678;5.806;2023-11-19T12:39:40;47.53;;;6.18;;
62572;SDS011;48626;51.678;5.806;2023-11-19T12:42:06;29.08;;;4.53;;
62572;SDS011;48626;51.678;5.806;2023-11-19T12:44:31;41.75;;;5.40;;
62572;SDS011;48626;51.678;5.806;2023-11-19T12:47:03;38.55;;;5.28;;
62572;SDS011;48626;51.678;5.806;2023-11-19T12:49:29;33.47;;;4.63;;
62572;SDS011;48626;51.678;5.806;2023-11-19T12:51:55;37.63;;;4.75;;
62572;SDS011;48626;51.678;5.806;2023-11-19T12:54:36;38.08;;;5.55;;
62572;SDS011;48626;51.678;5.806;2023-11-19T12:57:02;34.40;;;5.18;;
62572;SDS011;48626;51.678;5.806;2023-11-19T12:59:30;32.42;;;4.97;;
62572;SDS011;48626;51.678;5.806;2023-11-19T13:04:29;37.20;;;5.90;;
62572;SDS011;48626;51.678;5.806;2023-11-19T13:06:58;42.67;;;5.70;;
62572;SDS011;48626;51.678;5.806;2023-11-19T13:09:25;31.70;;;4.82;;
62572;SDS011;48626;51.678;5.806;2023-11-19T13:11:52;36.67;;;5.22;;
62572;SDS011;48626;51.678;5.806;2023-11-19T13:14:18;38.97;;;4.53;;
62572;SDS011;48626;51.678;5.806;2023-11-19T13:16:44;42.63;;;5.13;;
62572;SDS011;48626;51.678;5.806;2023-11-19T13:19:14;35.33;;;5.15;;
62572;SDS011;48626;51.678;5.806;2023-11-19T13:24:12;28.65;;;5.38;;
62572;SDS011;48626;51.678;5.806;2023-11-19T13:26:38;34.15;;;5.55;;
62572;SDS011;48626;51.678;5.806;2023-11-19T13:29:04;32.67;;;5.40;;
62572;SDS011;48626;51.678;5.806;2023-11-19T13:31:29;36.15;;;5.03;;
62572;SDS011;48626;51.678;5.806;2023-11-19T13:33:55;40.30;;;5.03;;
62572;SDS011;48626;51.678;5.806;2023-11-19T13:36:21;27.17;;;5.22;;
62572;SDS011;48626;51.678;5.806;2023-11-19T13:38:47;40.05;;;5.70;;
62572;SDS011;48626;51.678;5.806;2023-11-19T13:41:13;40.08;;;5.53;;
62572;SDS011;48626;51.678;5.806;2023-11-19T13:43:39;44.53;;;5.75;;
62572;SDS011;48626;51.678;5.806;2023-11-19T13:46:05;30.60;;;5.25;;
62572;SDS011;48626;51.678;5.806;2023-11-19T13:48:31;36.50;;;5.40;;
62572;SDS011;48626;51.678;5.806;2023-11-19T13:50:57;26.15;;;4.72;;
62572;SDS011;48626;51.678;5.806;2023-11-19T13:53:23;27.92;;;4.50;;
62572;SDS011;48626;51.678;5.806;2023-11-19T13:55:51;34.95;;;4.70;;
62572;SDS011;48626;51.678;5.806;2023-11-19T13:58:18;39.20;;;5.00;;
62572;SDS011;48626;51.678;5.806;2023-11-19T14:00:43;31.58;;;5.10;;
62572;SDS011;48626;51.678;5.806;2023-11-19T14:03:09;42.17;;;5.30;;
62572;SDS011;48626;51.678;5.806;2023-11-19T14:05:38;34.03;;;5.60;;
62572;SDS011;48626;51.678;5.806;2023-11-19T14:08:06;34.05;;;4.55;;
62572;SDS011;48626;51.678;5.806;2023-11-19T14:10:38;29.27;;;4.68;;
62572;SDS011;48626;51.678;5.806;2023-11-19T14:13:05;35.35;;;4.60;;
62572;SDS011;48626;51.678;5.806;2023-11-19T14:15:31;22.73;;;4.18;;
62572;SDS011;48626;51.678;5.806;2023-11-19T14:17:57;29.75;;;4.50;;
62572;SDS011;48626;51.678;5.806;2023-11-19T14:20:23;34.95;;;4.90;;
62572;SDS011;48626;51.678;5.806;2023-11-19T14:22:49;27.42;;;4.40;;
62572;SDS011;48626;51.678;5.806;2023-11-19T14:25:16;35.42;;;4.85;;
62572;SDS011;48626;51.678;5.806;2023-11-19T14:27:42;31.05;;;5.05;;
62572;SDS011;48626;51.678;5.806;2023-11-19T14:30:09;24.27;;;3.72;;
62572;SDS011;48626;51.678;5.806;2023-11-19T14:32:36;26.92;;;4.07;;
62572;SDS011;48626;51.678;5.806;2023-11-19T14:35:06;31.70;;;4.13;;
62572;SDS011;48626;51.678;5.806;2023-11-19T14:37:32;25.15;;;3.92;;
62572;SDS011;48626;51.678;5.806;2023-11-19T14:39:58;31.25;;;4.93;;
62572;SDS011;48626;51.678;5.806;2023-11-19T14:42:25;33.40;;;4.85;;
62572;SDS011;48626;51.678;5.806;2023-11-19T14:44:51;32.70;;;5.25;;
62572;SDS011;48626;51.678;5.806;2023-11-19T14:47:20;27.77;;;3.90;;
62572;SDS011;48626;51.678;5.806;2023-11-19T14:49:46;31.75;;;4.97;;
62572;SDS011;48626;51.678;5.806;2023-11-19T14:52:12;32.75;;;5.18;;
62572;SDS011;48626;51.678;5.806;2023-11-19T14:54:38;36.42;;;4.82;;
62572;SDS011;48626;51.678;5.806;2023-11-19T14:57:04;35.63;;;5.18;;
62572;SDS011;48626;51.678;5.806;2023-11-19T14:59:30;38.60;;;6.45;;
62572;SDS011;48626;51.678;5.806;2023-11-19T15:01:56;28.33;;;6.03;;
62572;SDS011;48626;51.678;5.806;2023-11-19T15:04:22;33.30;;;5.57;;
62572;SDS011;48626;51.678;5.806;2023-11-19T15:06:48;26.27;;;4.75;;
62572;SDS011;48626;51.678;5.806;2023-11-19T15:09:14;26.88;;;5.80;;